Time;durP1;ratioP1;P1;durP2;ratioP2;P2;SDS_P1;SDS_P2;PMS_P1;PMS_P2;Temp;Humidity;BMP_temperature;BMP_pressure;BME280_temperature;BME280_humidity;BME280_pressure;Samples;Min_cycle;Max_cycle;Signal;HPM_P1;HPM_P2
2022/09/24 00:00:18;;;;;;;8.43;7.53;;;12.40;99.90;;;;;;5033124;28;20281;-69
2022/09/24 00:02:44;;;;;;;9.60;8.80;;;12.40;99.90;;;;;;5033762;28;20493;-69
2022/09/24 00:05:09;;;;;;;8.73;7.83;;;12.40;99.90;;;;;;5033992;28;20179;-69
2022/09/24 00:07:35;;;;;;;9.97;8.80;;;12.40;99.90;;;;;;5033739;28;20219;-70
2022/09/24 00:10:01;;;;;;;10.10;9.03;;;12.40;99.90;;;;;;5032980;28;20166;-69
2022/09/24 00:12:27;;;;;;;10.03;8.93;;;12.50;99.90;;;;;;5033642;28;20174;-69
2022/09/24 00:14:53;;;;;;;11.47;9.23;;;12.60;99.90;;;;;;5033543;28;20420;-68
2022/09/24 00:17:18;;;;;;;9.83;8.50;;;12.50;99.90;;;;;;5033341;28;20463;-69
2022/09/24 00:19:44;;;;;;;8.67;7.83;;;12.50;99.90;;;;;;5032579;28;20213;-69
2022/09/24 00:22:09;;;;;;;9.50;8.63;;;12.40;99.90;;;;;;5033579;28;20170;-69
2022/09/24 00:27:19;;;;;;;10.07;9.07;;;12.40;99.90;;;;;;5033561;28;20204;-69
2022/09/24 00:29:44;;;;;;;9.60;8.80;;;12.40;99.90;;;;;;5032596;28;20460;-69
2022/09/24 00:32:12;;;;;;;9.90;9.00;;;12.40;99.90;;;;;;5033138;28;20621;-69
2022/09/24 00:34:37;;;;;;;9.80;8.93;;;12.30;99.90;;;;;;5033250;28;20261;-70
2022/09/24 00:37:03;;;;;;;10.10;9.03;;;12.30;99.90;;;;;;5033164;28;20881;-69
2022/09/24 00:39:28;;;;;;;10.33;9.33;;;12.30;99.90;;;;;;5030598;28;20202;-69
2022/09/24 00:41:54;;;;;;;11.20;10.30;;;12.30;99.90;;;;;;5033121;28;20170;-69
2022/09/24 00:44:46;;;;;;;10.37;9.33;;;12.30;99.90;;;;;;5033114;28;20249;-69
2022/09/24 00:47:29;;;;;;;12.67;8.90;;;12.30;99.90;;;;;;5032912;28;20190;-69
2022/09/24 00:50:08;;;;;;;9.67;8.70;;;12.30;99.90;;;;;;5032194;28;20424;-68
2022/09/24 00:52:38;;;;;;;9.33;8.43;;;12.30;99.90;;;;;;5031675;28;20515;-68
2022/09/24 00:55:04;;;;;;;9.57;8.87;;;12.40;99.90;;;;;;5032831;28;20445;-69
2022/09/24 00:57:30;;;;;;;9.43;8.60;;;12.30;99.90;;;;;;5032609;28;20969;-69
2022/09/24 00:59:56;;;;;;;10.50;9.50;;;12.30;99.90;;;;;;5031988;28;20456;-69
2022/09/24 01:02:23;;;;;;;9.83;8.93;;;12.20;99.90;;;;;;5032445;28;20409;-69
2022/09/24 01:04:48;;;;;;;9.73;8.93;;;12.00;99.90;;;;;;5012710;28;20195;-69
2022/09/24 01:07:14;;;;;;;10.73;9.83;;;11.90;99.90;;;;;;5012761;28;20965;-69
2022/09/24 01:09:40;;;;;;;10.90;8.73;;;11.90;99.90;;;;;;5012154;28;20198;-69
2022/09/24 01:12:29;;;;;;;10.13;9.20;;;11.80;99.90;;;;;;5012949;28;20456;-69
2022/09/24 01:15:14;;;;;;;10.70;9.00;;;11.80;99.90;;;;;;5012602;28;20211;-70
2022/09/24 01:17:59;;;;;;;9.67;8.67;;;11.90;99.90;;;;;;5010890;28;20492;-68
2022/09/24 01:20:42;;;;;;;13.60;9.10;;;11.90;99.90;;;;;;5011527;28;20869;-69
2022/09/24 01:23:54;;;;;;;9.60;8.70;;;11.90;99.90;;;;;;5012579;28;20503;-69
2022/09/24 01:26:47;;;;;;;13.10;8.60;;;11.80;99.90;;;;;;5004948;28;20508;-69
2022/09/24 01:29:47;;;;;;;8.93;8.20;;;11.80;99.90;;;;;;5003110;28;20426;-69
2022/09/24 01:32:19;;;;;;;10.70;9.80;;;11.70;99.90;;;;;;4996304;28;20435;-69
2022/09/24 01:34:59;;;;;;;9.10;8.23;;;11.60;99.90;;;;;;4992865;28;20426;-69
2022/09/24 01:37:28;;;;;;;11.37;9.00;;;11.60;99.90;;;;;;4992851;28;20526;-69
2022/09/24 01:39:55;;;;;;;11.67;10.40;;;11.60;99.90;;;;;;4992065;28;20462;-69
2022/09/24 01:42:22;;;;;;;11.50;8.90;;;11.60;99.90;;;;;;4992903;28;20469;-69
2022/09/24 01:44:49;;;;;;;11.40;9.67;;;11.60;99.90;;;;;;4993019;28;20457;-69
2022/09/24 01:47:38;;;;;;;10.60;8.77;;;11.50;99.90;;;;;;4992783;28;20439;-69
2022/09/24 01:50:06;;;;;;;9.50;8.70;;;11.50;99.90;;;;;;4992304;28;20824;-69
2022/09/24 01:52:39;;;;;;;11.90;8.70;;;11.40;99.90;;;;;;4992766;28;20418;-69
2022/09/24 01:55:08;;;;;;;9.83;8.87;;;11.30;99.90;;;;;;4992780;28;20430;-69
2022/09/24 01:57:49;;;;;;;10.00;9.20;;;11.30;99.90;;;;;;4992499;28;20837;-69
2022/09/24 02:00:18;;;;;;;9.67;8.70;;;11.30;99.90;;;;;;4991885;28;20454;-69
2022/09/24 02:03:17;;;;;;;9.50;8.60;;;11.30;99.90;;;;;;4992641;28;20446;-69
2022/09/24 02:06:02;;;;;;;10.87;9.97;;;11.20;99.90;;;;;;4984874;28;20483;-69
2022/09/24 02:08:36;;;;;;;11.13;9.60;;;11.20;99.90;;;;;;4991907;28;20430;-69
2022/09/24 02:11:04;;;;;;;10.40;9.13;;;11.20;99.90;;;;;;4992446;28;20477;-69
2022/09/24 02:13:38;;;;;;;10.77;9.70;;;11.20;99.90;;;;;;4992650;28;20426;-69
2022/09/24 02:16:06;;;;;;;12.50;9.57;;;11.20;99.90;;;;;;4992423;28;20415;-69
2022/09/24 02:18:38;;;;;;;10.37;9.37;;;11.20;99.90;;;;;;4991599;28;20433;-69
2022/09/24 02:21:08;;;;;;;11.13;10.13;;;11.20;99.90;;;;;;4992458;28;20927;-69
2022/09/24 02:23:37;;;;;;;11.33;10.33;;;11.20;99.90;;;;;;4992573;28;20423;-69
2022/09/24 02:26:04;;;;;;;11.30;10.20;;;11.20;99.90;;;;;;4992474;28;20550;-69
2022/09/24 02:28:31;;;;;;;11.07;9.93;;;11.30;99.90;;;;;;4991616;28;20472;-69
2022/09/24 02:31:09;;;;;;;13.40;10.00;;;11.40;99.90;;;;;;4992334;28;20473;-69
2022/09/24 02:36:23;;;;;;;10.70;9.70;;;11.50;99.90;;;;;;4992790;28;20445;-69
2022/09/24 02:38:49;;;;;;;11.67;10.67;;;11.50;99.90;;;;;;4991509;28;20463;-69
2022/09/24 02:41:15;;;;;;;10.63;8.90;;;11.50;99.90;;;;;;4993873;28;20426;-69
2022/09/24 02:43:41;;;;;;;11.63;10.50;;;11.60;99.90;;;;;;4996091;28;20434;-68
2022/09/24 02:46:08;;;;;;;11.53;10.63;;;11.60;99.90;;;;;;4996036;28;20542;-69
2022/09/24 02:48:35;;;;;;;13.20;11.90;;;11.50;99.90;;;;;;4995377;28;20168;-70
2022/09/24 02:51:02;;;;;;;10.17;9.27;;;11.60;99.90;;;;;;4996067;28;20441;-69
2022/09/24 02:53:28;;;;;;;11.40;10.17;;;11.60;99.90;;;;;;4995919;28;20975;-69
2022/09/24 02:55:54;;;;;;;10.63;9.63;;;11.60;99.90;;;;;;4995799;28;20426;-69
2022/09/24 02:58:20;;;;;;;12.13;10.87;;;11.60;99.90;;;;;;4994650;28;20215;-69
2022/09/24 03:00:45;;;;;;;11.10;10.10;;;11.70;99.90;;;;;;4995646;28;20171;-69
2022/09/24 03:03:11;;;;;;;13.30;10.63;;;11.80;99.90;;;;;;4995719;28;20207;-69
2022/09/24 03:05:36;;;;;;;10.20;9.20;;;11.70;99.90;;;;;;4995910;28;20535;-69
2022/09/24 03:08:02;;;;;;;11.50;10.33;;;11.70;99.90;;;;;;4995592;28;20191;-69
2022/09/24 03:10:27;;;;;;;13.33;11.37;;;11.70;99.90;;;;;;4994914;28;20203;-69
2022/09/24 03:12:53;;;;;;;11.83;10.70;;;11.70;99.90;;;;;;4994258;28;20179;-69
2022/09/24 03:15:18;;;;;;;14.50;10.30;;;11.70;99.90;;;;;;4995472;28;20183;-69
2022/09/24 03:17:44;;;;;;;11.73;10.60;;;11.70;99.90;;;;;;4995398;28;20286;-70
2022/09/24 03:20:09;;;;;;;10.77;9.20;;;11.70;99.90;;;;;;4994689;28;20768;-69
2022/09/24 03:22:35;;;;;;;10.80;9.90;;;11.70;99.90;;;;;;4995237;28;20171;-69
2022/09/24 03:25:02;;;;;;;11.17;10.17;;;11.70;99.90;;;;;;4993886;28;20179;-69
2022/09/24 03:27:27;;;;;;;10.97;9.40;;;11.70;99.90;;;;;;4995027;28;20600;-69
2022/09/24 03:32:38;;;;;;;10.90;9.67;;;11.60;99.90;;;;;;4995059;28;20229;-69
2022/09/24 03:35:04;;;;;;;11.27;10.47;;;11.60;99.90;;;;;;4995112;28;20419;-69
2022/09/24 03:37:30;;;;;;;13.00;11.83;;;11.60;99.90;;;;;;4994910;28;20447;-69
2022/09/24 03:39:56;;;;;;;10.40;8.70;;;11.60;99.90;;;;;;4994099;28;20549;-69
2022/09/24 03:42:21;;;;;;;10.00;9.17;;;11.60;99.90;;;;;;4994850;28;20454;-69
2022/09/24 03:44:47;;;;;;;11.80;10.60;;;11.70;99.90;;;;;;4994974;28;20167;-69
2022/09/24 03:47:12;;;;;;;10.57;9.50;;;11.70;99.90;;;;;;4993524;28;20660;-69
2022/09/24 03:49:38;;;;;;;10.93;9.93;;;11.70;99.90;;;;;;4994080;28;20188;-69
2022/09/24 03:52:03;;;;;;;9.70;8.97;;;11.70;99.90;;;;;;4994776;28;20180;-69
2022/09/24 03:54:30;;;;;;;13.27;9.83;;;11.80;99.90;;;;;;4994314;28;20200;-69
2022/09/24 03:56:55;;;;;;;9.90;9.00;;;11.80;99.90;;;;;;4994840;28;20208;-69
2022/09/24 03:59:21;;;;;;;10.00;9.10;;;11.80;99.90;;;;;;4993821;28;20549;-69
2022/09/24 04:01:46;;;;;;;10.87;9.77;;;11.90;99.90;;;;;;4994541;28;20172;-69
2022/09/24 04:04:15;;;;;;;11.07;10.07;;;11.90;99.90;;;;;;4994543;28;20234;-70
2022/09/24 04:06:40;;;;;;;14.03;11.47;;;11.90;99.90;;;;;;4994352;28;20207;-69
2022/09/24 04:09:06;;;;;;;12.40;11.30;;;11.90;99.90;;;;;;4993668;28;20415;-69
2022/09/24 04:11:34;;;;;;;10.67;9.70;;;11.90;99.90;;;;;;4994474;28;20180;-69
2022/09/24 04:13:59;;;;;;;10.80;9.80;;;11.90;99.90;;;;;;4994310;28;20287;-69
2022/09/24 04:16:25;;;;;;;13.20;10.93;;;12.00;99.90;;;;;;4994160;28;20474;-69
2022/09/24 04:18:51;;;;;;;10.60;9.60;;;12.00;99.90;;;;;;4993495;28;20319;-70
2022/09/24 04:21:16;;;;;;;10.97;9.90;;;12.00;99.90;;;;;;4994167;28;20203;-69
2022/09/24 04:23:42;;;;;;;11.57;10.40;;;12.10;99.90;;;;;;4994087;28;20175;-69
2022/09/24 04:26:07;;;;;;;11.60;10.37;;;12.10;99.90;;;;;;4994156;28;20171;-69
2022/09/24 04:28:34;;;;;;;12.10;10.83;;;12.10;99.90;;;;;;4993315;28;20680;-70
2022/09/24 04:30:59;;;;;;;12.10;10.93;;;12.10;99.90;;;;;;4993994;28;20171;-69
2022/09/24 04:33:25;;;;;;;11.70;10.50;;;12.10;99.90;;;;;;4994039;28;20423;-70
2022/09/24 04:35:51;;;;;;;10.97;9.73;;;12.10;99.90;;;;;;4993866;28;20171;-69
2022/09/24 04:38:18;;;;;;;10.43;9.43;;;12.10;99.90;;;;;;4992960;28;20271;-69
2022/09/24 04:40:46;;;;;;;11.07;9.90;;;12.10;99.90;;;;;;4993678;28;20206;-70
2022/09/24 04:43:12;;;;;;;14.47;12.80;;;12.10;99.90;;;;;;4993795;28;20419;-69
2022/09/24 04:45:38;;;;;;;12.83;11.63;;;12.00;99.90;;;;;;4993663;28;20422;-69
2022/09/24 04:48:04;;;;;;;15.40;12.30;;;12.00;99.90;;;;;;4993519;28;20427;-69
2022/09/24 04:50:32;;;;;;;13.00;11.77;;;11.90;99.90;;;;;;4992987;28;20450;-69
2022/09/24 04:52:57;;;;;;;11.43;10.43;;;11.80;99.90;;;;;;4993628;28;20501;-69
2022/09/24 04:55:24;;;;;;;12.07;10.93;;;11.80;99.90;;;;;;4993503;28;20525;-69
2022/09/24 04:57:49;;;;;;;11.53;10.47;;;11.80;99.90;;;;;;4993349;28;20211;-69
2022/09/24 05:00:17;;;;;;;11.50;10.40;;;11.80;99.90;;;;;;4992667;28;20466;-69
2022/09/24 05:02:43;;;;;;;10.60;9.80;;;11.80;99.90;;;;;;4993406;28;20182;-69
2022/09/24 05:05:10;;;;;;;11.80;10.80;;;11.80;99.90;;;;;;4992589;28;20833;-69
2022/09/24 05:07:36;;;;;;;12.20;11.10;;;11.80;99.90;;;;;;4993373;28;20434;-69
2022/09/24 05:10:01;;;;;;;12.27;11.03;;;11.70;99.90;;;;;;4992484;28;20442;-69
2022/09/24 05:12:27;;;;;;;12.23;11.07;;;11.70;99.90;;;;;;4993333;28;20179;-69
2022/09/24 05:14:52;;;;;;;13.10;11.27;;;11.70;99.90;;;;;;4993262;28;20178;-69
2022/09/24 05:17:18;;;;;;;13.83;12.63;;;11.70;99.90;;;;;;4993059;28;20242;-69
2022/09/24 05:19:43;;;;;;;14.63;13.10;;;11.70;99.90;;;;;;4992245;28;20203;-69
2022/09/24 05:22:09;;;;;;;14.23;12.73;;;11.70;99.90;;;;;;4993276;28;20183;-69
2022/09/24 05:24:35;;;;;;;12.80;11.47;;;11.70;99.90;;;;;;4993178;28;20168;-69
2022/09/24 05:27:09;;;;;;;13.63;11.90;;;11.80;99.90;;;;;;4992946;28;20203;-69
2022/09/24 05:29:37;;;;;;;12.60;11.13;;;11.80;99.90;;;;;;4992337;28;20170;-69
2022/09/24 05:32:07;;;;;;;12.17;10.97;;;11.80;99.90;;;;;;4992943;28;20450;-69
2022/09/24 05:34:34;;;;;;;13.93;12.63;;;11.80;99.90;;;;;;4993027;28;20429;-69
2022/09/24 05:37:00;;;;;;;17.10;15.33;;;11.90;99.90;;;;;;4992835;28;20454;-69
2022/09/24 05:39:27;;;;;;;15.83;14.43;;;11.90;99.90;;;;;;4992010;28;20450;-69
2022/09/24 05:41:53;;;;;;;20.43;15.73;;;11.90;99.90;;;;;;4992823;28;20422;-69
2022/09/24 05:44:19;;;;;;;15.27;13.73;;;12.00;99.90;;;;;;4992877;28;20427;-69
2022/09/24 05:46:45;;;;;;;16.60;14.93;;;12.00;99.90;;;;;;4992700;28;20609;-69
2022/09/24 05:49:11;;;;;;;18.77;14.67;;;12.00;99.90;;;;;;4991998;28;20477;-69
2022/09/24 05:51:36;;;;;;;16.50;14.77;;;12.00;99.90;;;;;;4992766;28;20171;-69
2022/09/24 05:54:02;;;;;;;17.03;15.33;;;12.00;99.90;;;;;;4992753;28;20179;-69
2022/09/24 05:56:27;;;;;;;13.10;11.90;;;12.00;99.90;;;;;;4992562;28;20199;-69
2022/09/24 05:58:53;;;;;;;14.37;12.97;;;12.10;99.90;;;;;;4991967;28;20257;-69
2022/09/24 06:01:19;;;;;;;14.03;12.60;;;12.10;99.90;;;;;;4992589;28;20164;-69
2022/09/24 06:03:44;;;;;;;15.87;13.20;;;12.20;99.90;;;;;;4992627;28;20476;-69
2022/09/24 06:06:10;;;;;;;14.40;13.00;;;12.30;99.90;;;;;;4992522;28;20170;-69
2022/09/24 06:08:36;;;;;;;14.53;13.10;;;12.30;99.90;;;;;;4991837;28;20171;-69
2022/09/24 06:11:04;;;;;;;17.20;13.00;;;12.30;99.90;;;;;;4992548;28;20419;-69
2022/09/24 06:13:32;;;;;;;14.83;13.53;;;12.30;99.90;;;;;;4992565;28;20171;-69
2022/09/24 06:16:07;;;;;;;13.90;12.60;;;12.30;99.90;;;;;;4993230;28;20501;-69
2022/09/24 06:18:33;;;;;;;13.87;12.40;;;12.50;99.90;;;;;;4995649;28;20781;-69
2022/09/24 06:21:05;;;;;;;13.47;11.67;;;12.70;99.90;;;;;;4995367;28;20418;-69
2022/09/24 06:23:31;;;;;;;13.10;12.00;;;12.90;99.90;;;;;;4996269;28;20423;-69
2022/09/24 06:25:57;;;;;;;13.43;11.93;;;12.90;99.90;;;;;;4996321;28;20421;-69
2022/09/24 06:28:24;;;;;;;13.10;11.90;;;13.00;99.90;;;;;;4995664;28;20201;-69
2022/09/24 06:30:50;;;;;;;13.07;11.77;;;13.00;99.90;;;;;;4995921;28;20947;-69
2022/09/24 06:33:16;;;;;;;13.40;12.30;;;13.10;99.90;;;;;;4996164;28;20429;-69
2022/09/24 06:35:43;;;;;;;14.30;12.80;;;13.10;99.90;;;;;;4994885;28;20426;-69
2022/09/24 06:38:14;;;;;;;13.70;12.40;;;13.20;99.90;;;;;;4995756;28;20265;-70
2022/09/24 06:40:41;;;;;;;13.97;12.57;;;13.30;99.90;;;;;;5000906;28;20458;-69
2022/09/24 06:43:09;;;;;;;14.17;12.57;;;13.30;99.90;;;;;;5004632;28;21053;-69
2022/09/24 06:45:35;;;;;;;12.57;11.53;;;13.50;99.90;;;;;;5005472;28;20417;-69
2022/09/24 06:48:03;;;;;;;15.13;13.67;;;13.60;99.90;;;;;;5006138;28;20449;-69
2022/09/24 06:50:30;;;;;;;14.33;12.87;;;13.50;99.90;;;;;;4999405;28;20182;-77
2022/09/24 06:52:57;;;;;;;13.90;12.67;;;13.70;99.90;;;;;;5014024;28;20449;-77
2022/09/24 06:55:22;;;;;;;13.63;12.33;;;13.30;99.90;;;;;;5015324;28;20421;-78
2022/09/24 06:57:48;;;;;;;12.77;11.47;;;13.40;99.90;;;;;;5014957;28;20466;-77
2022/09/24 07:00:15;;;;;;;12.97;11.70;;;13.50;99.90;;;;;;5014353;28;20719;-77
2022/09/24 07:02:41;;;;;;;12.60;11.40;;;13.60;99.90;;;;;;5015293;28;20436;-78
2022/09/24 07:05:08;;;;;;;16.40;14.87;;;13.60;99.90;;;;;;5015201;28;20422;-78
2022/09/24 07:07:35;;;;;;;17.73;13.40;;;13.50;99.90;;;;;;5013762;28;20449;-78
2022/09/24 07:10:05;;;;;;;14.60;13.30;;;13.60;99.90;;;;;;5014323;28;20456;-77
2022/09/24 07:12:32;;;;;;;14.43;13.13;;;13.50;99.90;;;;;;5015093;28;20425;-77
2022/09/24 07:14:59;;;;;;;15.63;11.37;;;13.50;99.90;;;;;;5015002;28;20868;-77
2022/09/24 07:17:25;;;;;;;16.47;12.20;;;13.60;99.90;;;;;;5014951;28;20981;-77
2022/09/24 07:19:51;;;;;;;14.33;13.13;;;13.80;99.90;;;;;;5014269;28;20560;-78
2022/09/24 07:22:17;;;;;;;14.33;13.03;;;13.90;99.90;;;;;;5014847;28;20461;-77
2022/09/24 07:24:43;;;;;;;21.53;15.00;;;13.90;99.90;;;;;;5014838;28;20175;-78
2022/09/24 07:27:08;;;;;;;15.43;13.87;;;13.80;99.90;;;;;;5014277;28;20453;-78
2022/09/24 07:29:34;;;;;;;13.40;12.10;;;13.90;99.90;;;;;;5013679;28;20270;-78
2022/09/24 07:32:00;;;;;;;13.70;12.40;;;14.00;99.90;;;;;;5014797;28;20175;-78
2022/09/24 07:34:26;;;;;;;13.03;11.90;;;14.00;99.90;;;;;;5014596;28;20232;-78
2022/09/24 07:36:54;;;;;;;13.93;12.53;;;14.00;99.90;;;;;;5014476;28;20445;-78
2022/09/24 07:39:20;;;;;;;16.93;11.80;;;14.10;99.90;;;;;;5013672;28;20237;-78
2022/09/24 07:41:45;;;;;;;13.77;12.47;;;14.20;99.90;;;;;;5014696;28;20508;-78
2022/09/24 07:44:11;;;;;;;12.60;11.40;;;14.40;99.90;;;;;;5014459;28;20249;-78
2022/09/24 07:46:36;;;;;;;12.90;11.80;;;14.50;99.90;;;;;;5014291;28;20197;-77
2022/09/24 07:49:02;;;;;;;15.70;11.83;;;14.70;99.90;;;;;;5013713;28;20175;-77
2022/09/24 07:51:28;;;;;;;13.70;11.97;;;14.70;99.90;;;;;;5013014;28;20186;-78
2022/09/24 07:53:55;;;;;;;12.83;11.63;;;14.80;99.90;;;;;;5014251;28;20179;-78
2022/09/24 07:56:22;;;;;;;14.27;12.87;;;15.00;99.90;;;;;;5014063;28;20448;-77
2022/09/24 07:58:49;;;;;;;13.73;12.30;;;15.20;99.90;;;;;;5013577;28;20822;-78
2022/09/24 08:01:16;;;;;;;13.53;12.17;;;15.30;99.90;;;;;;5014082;28;20493;-78
2022/09/24 08:03:42;;;;;;;12.80;11.60;;;15.40;99.90;;;;;;5014064;28;20426;-78
2022/09/24 08:06:08;;;;;;;12.20;11.17;;;15.60;99.90;;;;;;5013935;28;20417;-78
2022/09/24 08:08:34;;;;;;;12.70;11.60;;;15.60;99.90;;;;;;5013212;28;20409;-78
2022/09/24 08:11:04;;;;;;;12.60;11.63;;;15.80;99.90;;;;;;5013949;28;20164;-78
2022/09/24 08:13:30;;;;;;;11.40;10.27;;;15.90;99.90;;;;;;5013903;28;20202;-78
2022/09/24 08:16:00;;;;;;;14.40;13.20;;;15.90;99.90;;;;;;5013811;28;20442;-79
2022/09/24 08:18:27;;;;;;;11.13;10.13;;;16.00;99.90;;;;;;5013182;28;20173;-78
2022/09/24 08:20:52;;;;;;;11.87;10.83;;;16.20;99.90;;;;;;5013687;28;20803;-78
2022/09/24 08:23:19;;;;;;;11.93;10.00;;;16.30;99.90;;;;;;5013999;28;20418;-78
2022/09/24 08:25:48;;;;;;;11.30;10.40;;;16.40;99.90;;;;;;5013633;28;20163;-78
2022/09/24 08:28:15;;;;;;;12.40;10.70;;;16.50;99.90;;;;;;5012890;28;20429;-78
2022/09/24 08:30:42;;;;;;;11.03;10.13;;;16.60;99.90;;;;;;5013626;28;20422;-78
2022/09/24 08:33:08;;;;;;;11.80;10.70;;;16.70;99.90;;;;;;5013524;28;20417;-78
2022/09/24 08:35:34;;;;;;;11.07;9.00;;;16.80;99.90;;;;;;5013370;28;20418;-78
2022/09/24 08:38:02;;;;;;;10.63;9.83;;;16.90;99.90;;;;;;5013421;28;20528;-78
2022/09/24 08:40:30;;;;;;;11.07;10.00;;;16.80;99.90;;;;;;5009251;28;20488;-79
2022/09/24 08:43:09;;;;;;;9.00;8.30;;;16.80;99.90;;;;;;5010308;28;20438;-78
2022/09/24 08:48:31;;;;;;;12.87;11.50;;;16.50;99.90;;;;;;5013111;28;20409;-77
2022/09/24 08:51:02;;;;;;;11.80;8.90;;;16.40;99.90;;;;;;5013252;28;20888;-77
2022/09/24 08:53:47;;;;;;;5.70;5.20;;;16.30;99.90;;;;;;5013292;28;20552;-74
2022/09/24 08:56:17;;;;;;;5.87;5.33;;;16.00;99.90;;;;;;5012508;28;20418;-76
2022/09/24 08:58:54;;;;;;;6.57;6.07;;;15.80;99.90;;;;;;5012246;28;20410;-77
2022/09/24 09:01:29;;;;;;;6.13;5.70;;;15.60;99.90;;;;;;5013104;28;20417;-77
2022/09/24 09:04:03;;;;;;;5.60;5.20;;;15.60;99.90;;;;;;5013024;28;20763;-77
2022/09/24 09:06:55;;;;;;;5.37;4.87;;;15.50;99.90;;;;;;5012980;28;20444;-77
2022/09/24 09:09:21;;;;;;;6.00;5.30;;;15.60;99.90;;;;;;5012925;28;20425;-77
2022/09/24 09:11:50;;;;;;;6.20;5.60;;;15.50;99.90;;;;;;5012540;28;20440;-78
2022/09/24 09:14:37;;;;;;;5.50;5.03;;;15.40;99.90;;;;;;5012888;28;20413;-77
2022/09/24 09:17:15;;;;;;;6.80;6.10;;;15.50;99.90;;;;;;5012785;28;20437;-77
2022/09/24 09:19:45;;;;;;;6.23;5.70;;;15.40;99.90;;;;;;5011939;28;20484;-77
2022/09/24 09:22:13;;;;;;;6.77;6.27;;;15.40;99.90;;;;;;5012753;28;20422;-77
2022/09/24 09:24:47;;;;;;;6.30;5.80;;;15.30;99.90;;;;;;5012740;28;20921;-77
2022/09/24 09:27:15;;;;;;;6.37;5.87;;;15.20;99.90;;;;;;5012522;28;20491;-77
2022/09/24 09:29:43;;;;;;;7.30;6.63;;;15.00;99.90;;;;;;5012112;28;20422;-77
2022/09/24 09:32:48;;;;;;;7.77;7.10;;;14.90;99.90;;;;;;5012696;28;20429;-77
2022/09/24 09:35:28;;;;;;;8.73;7.10;;;14.70;99.90;;;;;;5012733;28;20495;-77
2022/09/24 09:38:05;;;;;;;6.63;6.13;;;14.70;99.90;;;;;;5010226;28;20442;-77
2022/09/24 09:40:36;;;;;;;7.27;6.67;;;14.90;99.90;;;;;;4992877;28;21123;-77
2022/09/24 09:43:13;;;;;;;7.20;6.63;;;15.00;99.90;;;;;;4992788;28;20423;-75
2022/09/24 09:45:58;;;;;;;7.63;6.93;;;15.00;99.90;;;;;;5007050;28;20418;-76
2022/09/24 09:48:30;;;;;;;9.57;7.17;;;15.20;99.90;;;;;;4999662;28;20438;-75
2022/09/24 09:51:03;;;;;;;6.70;6.13;;;15.10;99.90;;;;;;5012265;28;20426;-74
2022/09/24 09:53:32;;;;;;;7.77;7.00;;;15.10;99.90;;;;;;5005145;28;20423;-74
2022/09/24 09:56:06;;;;;;;7.37;6.63;;;15.00;99.90;;;;;;5004251;28;20418;-74
2022/09/24 09:58:40;;;;;;;6.87;6.37;;;15.00;99.90;;;;;;4997961;28;20447;-74
2022/09/24 10:01:16;;;;;;;7.30;6.60;;;15.00;99.90;;;;;;5006205;28;20430;-74
2022/09/24 10:03:50;;;;;;;8.30;7.50;;;15.00;99.90;;;;;;5001290;28;20788;-75
2022/09/24 10:06:25;;;;;;;13.17;8.10;;;15.00;99.90;;;;;;5001391;28;20420;-75
2022/09/24 10:08:51;;;;;;;8.47;7.67;;;15.10;99.90;;;;;;5003426;28;20433;-75
2022/09/24 10:11:18;;;;;;;9.23;8.43;;;15.20;99.90;;;;;;5003501;28;20460;-75
2022/09/24 10:13:44;;;;;;;10.13;9.13;;;15.10;99.90;;;;;;5007956;28;20515;-75
2022/09/24 10:16:12;;;;;;;10.43;9.43;;;15.10;99.90;;;;;;5010664;28;20421;-75
2022/09/24 10:18:41;;;;;;;11.97;7.40;;;15.10;99.90;;;;;;5011187;28;20175;-76
2022/09/24 10:21:12;;;;;;;9.13;8.23;;;15.20;99.90;;;;;;5012119;28;20425;-76
2022/09/24 10:23:43;;;;;;;9.73;8.60;;;15.10;99.90;;;;;;5012020;28;20414;-76
2022/09/24 10:26:09;;;;;;;7.77;7.07;;;15.20;99.90;;;;;;5008761;28;20506;-67
2022/09/24 10:31:28;;;;;;;10.00;9.10;;;15.20;99.90;;;;;;5012383;28;20504;-68
2022/09/24 10:33:56;;;;;;;6.70;6.20;;;15.30;99.90;;;;;;5012113;28;20920;-67
2022/09/24 10:36:31;;;;;;;8.20;6.90;;;15.30;99.90;;;;;;5002591;28;20453;-68
2022/09/24 10:39:14;;;;;;;7.87;7.03;;;15.30;99.90;;;;;;4991589;28;20956;-69
2022/09/24 10:41:51;;;;;;;7.27;6.47;;;15.40;99.90;;;;;;4992295;28;20414;-69
2022/09/24 10:44:19;;;;;;;19.60;12.40;;;15.50;99.90;;;;;;4992354;28;20853;-67
2022/09/24 10:47:14;;;;;;;6.90;6.13;;;15.60;99.90;;;;;;4989557;28;20466;-67
2022/09/24 10:49:47;;;;;;;6.50;6.00;;;15.70;99.90;;;;;;4991610;28;20787;-68
2022/09/24 10:52:59;;;;;;;7.60;7.00;;;15.70;99.90;;;;;;4992220;28;20538;-67
2022/09/24 10:55:32;;;;;;;9.97;7.27;;;15.70;99.90;;;;;;4991784;28;20517;-67
2022/09/24 10:58:23;;;;;;;7.67;6.50;;;15.60;99.90;;;;;;4991951;28;20501;-67
2022/09/24 11:01:18;;;;;;;6.20;5.70;;;15.40;99.90;;;;;;4991577;28;20470;-67
2022/09/24 11:04:05;;;;;;;5.57;5.17;;;15.30;99.90;;;;;;4975885;28;20832;-67
2022/09/24 11:06:52;;;;;;;5.17;4.03;;;15.20;99.90;;;;;;4995607;28;20438;-68
2022/09/24 11:09:58;;;;;;;5.80;5.40;;;15.20;99.90;;;;;;4994842;28;20418;-67
2022/09/24 11:12:44;;;;;;;5.67;5.20;;;15.10;99.90;;;;;;4995651;28;20513;-68
2022/09/24 11:15:34;;;;;;;5.83;5.23;;;14.90;99.90;;;;;;4994876;28;20480;-67
2022/09/24 11:18:44;;;;;;;7.27;6.67;;;14.80;99.90;;;;;;4995163;28;20566;-67
2022/09/24 11:21:28;;;;;;;6.30;5.80;;;14.80;99.90;;;;;;4995444;28;20997;-67
2022/09/24 11:24:02;;;;;;;10.73;7.27;;;15.00;99.90;;;;;;4995408;28;20946;-67
2022/09/24 11:26:42;;;;;;;6.77;6.20;;;15.10;99.90;;;;;;4995136;28;20931;-67
2022/09/24 11:29:39;;;;;;;7.37;6.77;;;15.20;99.90;;;;;;4994758;28;20455;-67
2022/09/24 11:32:31;;;;;;;6.37;5.77;;;15.30;99.90;;;;;;4994619;28;20425;-68
2022/09/24 11:35:29;;;;;;;6.20;5.60;;;15.50;99.90;;;;;;4995048;28;20465;-68
2022/09/24 11:38:01;;;;;;;7.07;6.47;;;15.70;99.90;;;;;;4995095;28;20940;-67
2022/09/24 11:40:51;;;;;;;10.60;9.70;;;15.80;99.90;;;;;;4994256;28;20490;-68
2022/09/24 11:43:43;;;;;;;7.27;6.57;;;15.80;99.90;;;;;;4994933;28;20431;-68
2022/09/24 11:46:17;;;;;;;8.00;6.77;;;15.70;99.90;;;;;;4993086;28;20414;-67
2022/09/24 11:49:10;;;;;;;7.23;6.60;;;15.70;99.90;;;;;;4992842;28;20429;-67
2022/09/24 11:51:51;;;;;;;7.23;5.53;;;15.70;99.90;;;;;;4998551;28;20419;-68
2022/09/24 11:54:38;;;;;;;7.17;6.57;;;15.80;99.90;;;;;;5005067;28;20418;-68
2022/09/24 11:57:21;;;;;;;6.77;6.10;;;15.70;99.90;;;;;;5005475;28;20529;-69
2022/09/24 11:59:57;;;;;;;7.20;6.10;;;15.60;99.90;;;;;;5003906;28;20738;-69
2022/09/24 12:02:31;;;;;;;7.37;6.77;;;15.60;99.90;;;;;;5004250;28;20795;-69
2022/09/24 12:05:12;;;;;;;7.17;6.47;;;15.60;99.90;;;;;;5004968;28;20427;-69
2022/09/24 12:07:55;;;;;;;7.50;6.90;;;15.70;99.90;;;;;;5005117;28;20483;-69
2022/09/24 12:10:34;;;;;;;6.23;5.73;;;15.80;99.90;;;;;;5004225;28;20418;-69
2022/09/24 12:13:40;;;;;;;7.43;6.73;;;15.90;99.90;;;;;;5005738;28;20453;-69
2022/09/24 12:16:13;;;;;;;7.87;7.13;;;16.00;99.90;;;;;;4926585;29;20994;-69
2022/09/24 12:18:57;;;;;;;7.10;6.60;;;16.10;99.90;;;;;;4991984;28;20501;-68
2022/09/24 12:21:45;;;;;;;7.27;6.67;;;16.30;99.90;;;;;;5003406;28;20456;-69
2022/09/24 12:24:36;;;;;;;8.20;6.70;;;16.40;99.90;;;;;;5003233;28;20418;-68
2022/09/24 12:27:34;;;;;;;11.20;10.10;;;16.20;99.90;;;;;;5002299;28;20450;-68
2022/09/24 12:33:10;;;;;;;7.97;7.37;;;16.20;99.90;;;;;;5000897;28;20457;-68
2022/09/24 12:35:57;;;;;;;9.30;8.40;;;16.20;99.90;;;;;;4984078;28;20418;-68
2022/09/24 12:38:35;;;;;;;8.30;7.50;;;16.10;99.90;;;;;;5012565;28;20438;-70
2022/09/24 12:41:19;;;;;;;8.80;8.10;;;16.10;99.90;;;;;;5013380;28;20461;-70
2022/09/24 12:44:09;;;;;;;8.07;7.47;;;16.20;99.90;;;;;;5013208;28;20421;-72
2022/09/24 12:46:51;;;;;;;7.23;6.70;;;16.40;99.90;;;;;;5012269;28;20437;-71
2022/09/24 12:49:26;;;;;;;8.80;7.90;;;16.40;99.90;;;;;;5013128;28;20424;-71
2022/09/24 12:51:57;;;;;;;8.00;7.40;;;16.60;99.90;;;;;;5014267;28;20440;-72
2022/09/24 12:54:34;;;;;;;9.07;7.63;;;16.90;99.90;;;;;;5013970;28;20434;-71
2022/09/24 12:57:19;;;;;;;7.03;6.47;;;17.10;99.90;;;;;;5003033;28;20473;-71
2022/09/24 12:59:51;;;;;;;9.93;9.03;;;17.40;99.90;;;;;;4993765;28;20819;-71
2022/09/24 13:02:22;;;;;;;8.23;7.57;;;17.40;99.90;;;;;;4998901;28;20943;-71
2022/09/24 13:05:00;;;;;;;6.50;6.00;;;17.20;99.90;;;;;;5012459;28;20418;-71
2022/09/24 13:07:31;;;;;;;7.47;6.87;;;16.90;99.90;;;;;;5012485;28;20946;-70
2022/09/24 13:09:56;;;;;;;7.20;6.57;;;16.80;99.90;;;;;;5012312;28;20849;-70
2022/09/24 13:12:32;;;;;;;6.77;6.17;;;16.80;99.90;;;;;;5012585;28;20445;-70
2022/09/24 13:15:21;;;;;;;7.50;6.90;;;16.90;99.90;;;;;;5002388;28;20210;-70